createdAt,value
2022-11-19T00:04:08.305Z,17.48
2022-11-19T00:09:14.705Z,17.41
2022-11-19T00:14:17.178Z,17.45
2022-11-19T00:19:19.718Z,17.34
2022-11-19T00:24:23.056Z,17.12
2022-11-19T00:29:25.343Z,17.13
2022-11-19T00:34:27.680Z,17.29
2022-11-19T00:39:30.564Z,17.22
2022-11-19T00:44:37.190Z,17.08
2022-11-19T00:49:39.962Z,16.95
2022-11-19T00:54:42.240Z,17.28
2022-11-19T00:59:44.492Z,16.95
2022-11-19T01:04:46.681Z,17.23
2022-11-19T01:09:48.906Z,17.04
2022-11-19T01:14:51.309Z,16.76
2022-11-19T01:19:53.552Z,16.87
2022-11-19T01:24:55.752Z,16.89
2022-11-19T01:29:57.981Z,16.88
2022-11-19T01:35:00.195Z,16.86
2022-11-19T01:40:02.406Z,16.88
2022-11-19T01:45:07.145Z,16.91
2022-11-19T01:50:09.506Z,16.71
2022-11-19T01:55:12.489Z,16.61
2022-11-19T02:00:15.177Z,16.57
2022-11-19T02:05:18.033Z,16.58
2022-11-19T02:10:24.434Z,16.50
2022-11-19T02:15:29.359Z,16.57
2022-11-19T02:20:50.291Z,16.58
2022-11-19T02:26:20.170Z,16.55
2022-11-19T02:31:31.669Z,16.31
2022-11-19T02:36:59.753Z,16.47
2022-11-19T02:42:30.565Z,15.82
2022-11-19T02:47:35.837Z,16.41
2022-11-19T02:52:40.217Z,16.05
2022-11-19T02:57:51.904Z,16.34
2022-11-19T03:03:18.623Z,16.00
2022-11-19T03:08:21.437Z,16.24
2022-11-19T03:13:55.640Z,16.01
2022-11-19T03:19:08.671Z,15.93
2022-11-19T03:24:23.911Z,15.94
2022-11-19T03:29:28.465Z,15.65
2022-11-19T03:34:32.159Z,15.68
2022-11-19T03:39:37.546Z,15.74
2022-11-19T03:44:45.368Z,15.76
2022-11-19T03:49:52.731Z,15.72
2022-11-19T03:54:55.281Z,15.54
2022-11-19T03:59:57.478Z,15.26
2022-11-19T04:04:59.716Z,15.36
2022-11-19T04:10:02.139Z,15.41
2022-11-19T04:15:04.737Z,15.48
2022-11-19T04:20:08.409Z,15.43
2022-11-19T04:25:10.751Z,15.29
2022-11-19T04:30:13.848Z,15.27
2022-11-19T04:35:19.268Z,15.17
2022-11-19T04:40:21.630Z,15.27
2022-11-19T04:45:23.896Z,14.94
2022-11-19T04:50:26.224Z,14.95
2022-11-19T04:55:28.420Z,14.70
2022-11-19T05:00:30.907Z,14.87
2022-11-19T05:05:33.174Z,14.91
2022-11-19T05:10:35.524Z,14.57
2022-11-19T05:15:37.977Z,14.87
2022-11-19T05:20:40.389Z,14.74
2022-11-19T05:25:42.631Z,14.97
2022-11-19T05:30:44.968Z,14.71
2022-11-19T05:35:47.294Z,15.02
2022-11-19T05:40:49.520Z,14.87
2022-11-19T05:45:53.418Z,14.93
2022-11-19T05:50:55.888Z,14.92
2022-11-19T05:55:58.094Z,15.02
2022-11-19T06:01:00.651Z,14.96
2022-11-19T06:06:02.998Z,15.00
2022-11-19T06:11:05.384Z,15.06
2022-11-19T06:16:07.769Z,14.87
2022-11-19T06:21:12.251Z,15.22
2022-11-19T06:26:23.754Z,15.47
2022-11-19T06:31:26.306Z,15.43
2022-11-19T06:36:33.732Z,15.34
2022-11-19T06:41:39.846Z,15.42
2022-11-19T06:46:42.075Z,15.50
2022-11-19T06:51:44.348Z,15.42
2022-11-19T06:56:46.585Z,15.75
2022-11-19T07:01:48.836Z,15.78
2022-11-19T07:06:51.200Z,15.88
2022-11-19T07:11:53.691Z,15.73
2022-11-19T07:16:56.700Z,16.02
2022-11-19T07:21:59.085Z,16.09
2022-11-19T07:27:01.574Z,16.20
2022-11-19T07:32:03.810Z,16.46
2022-11-19T07:37:06.165Z,16.09
2022-11-19T07:42:27.523Z,16.51
2022-11-19T07:47:30.158Z,16.49
2022-11-19T07:52:32.701Z,16.52
2022-11-19T07:57:35.356Z,16.61
2022-11-19T08:02:38.894Z,16.57
2022-11-19T08:07:42.292Z,16.80
2022-11-19T08:13:03.411Z,16.61
2022-11-19T08:18:16.536Z,16.78
2022-11-19T08:23:18.880Z,16.89
2022-11-19T08:28:21.296Z,17.14
2022-11-19T08:33:23.603Z,17.26
2022-11-19T08:38:26.705Z,17.13
2022-11-19T08:43:28.987Z,17.49
2022-11-19T08:48:31.330Z,17.38
2022-11-19T08:53:34.612Z,18.03
2022-11-19T08:58:37.041Z,18.11
2022-11-19T09:03:39.974Z,18.31
2022-11-19T09:08:42.488Z,18.60
2022-11-19T09:13:45.091Z,18.65
2022-11-19T09:18:47.367Z,18.64
2022-11-19T09:23:49.957Z,18.50
2022-11-19T09:28:52.322Z,18.70
2022-11-19T09:33:55.047Z,18.80
2022-11-19T09:38:58.695Z,18.89
2022-11-19T09:44:23.125Z,18.90
2022-11-19T09:49:38.308Z,18.85
2022-11-19T09:54:50.707Z,19.02
2022-11-19T09:59:57.217Z,18.92
2022-11-19T10:04:59.887Z,19.09
2022-11-19T10:10:23.068Z,19.25
2022-11-19T10:15:37.953Z,19.09
2022-11-19T10:20:53.581Z,19.18
2022-11-19T10:26:04.466Z,19.26
2022-11-19T10:31:36.579Z,19.61
2022-11-19T10:36:47.106Z,20.18
2022-11-19T10:42:01.169Z,20.43
2022-11-19T10:47:37.512Z,20.64
2022-11-19T10:52:53.802Z,20.77
2022-11-19T10:58:24.796Z,20.97
2022-11-19T11:03:44.489Z,21.10
2022-11-19T11:08:55.170Z,21.11
2022-11-19T11:14:18.807Z,21.11
2022-11-19T11:19:22.498Z,21.19
2022-11-19T11:24:35.673Z,21.39
2022-11-19T11:29:37.933Z,21.49
2022-11-19T11:34:44.137Z,21.50
2022-11-19T11:39:53.113Z,21.29
2022-11-19T11:45:01.688Z,21.25
2022-11-19T11:50:15.648Z,21.58
2022-11-19T11:55:23.899Z,21.58
2022-11-19T12:00:46.507Z,21.61
2022-11-19T12:06:04.439Z,21.69
2022-11-19T12:11:20.346Z,21.75
2022-11-19T12:16:22.588Z,22.00
2022-11-19T12:21:36.682Z,22.13
2022-11-19T12:27:01.507Z,22.06
2022-11-19T12:32:17.373Z,22.07
2022-11-19T12:37:25.364Z,22.43
2022-11-19T12:42:33.351Z,22.44
2022-11-19T12:48:03.269Z,22.32
2022-11-19T12:53:28.248Z,22.61
2022-11-19T12:58:50.744Z,22.60
2022-11-19T13:03:56.017Z,22.58
2022-11-19T13:09:07.836Z,22.59
2022-11-19T13:14:36.068Z,22.49
2022-11-19T13:19:40.100Z,23.07
2022-11-19T13:24:47.442Z,23.24
2022-11-19T13:30:00.156Z,23.61
2022-11-19T13:35:19.133Z,23.70
2022-11-19T13:40:37.462Z,23.48
2022-11-19T13:45:43.768Z,23.32
2022-11-19T13:50:49.369Z,23.32
2022-11-19T13:55:58.056Z,23.56
2022-11-19T14:01:24.606Z,23.98
2022-11-19T14:06:32.279Z,24.42
2022-11-19T14:11:34.732Z,24.59
2022-11-19T14:17:12.270Z,24.52
2022-11-19T14:22:54.050Z,24.69
2022-11-19T14:27:56.316Z,24.41
2022-11-19T14:32:58.824Z,23.62
2022-11-19T14:38:23.655Z,23.08
2022-11-19T14:43:46.359Z,23.14
2022-11-19T14:48:52.594Z,22.70
2022-11-19T14:54:01.793Z,22.69
2022-11-19T14:59:21.175Z,22.27
2022-11-19T15:04:29.751Z,22.41
2022-11-19T15:10:09.184Z,22.28
2022-11-19T15:15:20.612Z,22.21
2022-11-19T15:20:34.040Z,21.97
2022-11-19T15:26:12.316Z,21.86
2022-11-19T15:31:43.478Z,21.58
2022-11-19T15:36:52.562Z,21.85
2022-11-19T15:42:02.832Z,21.48
2022-11-19T15:47:13.162Z,21.32
2022-11-19T15:52:28.959Z,21.49
2022-11-19T15:57:31.725Z,21.26
2022-11-19T16:02:41.630Z,21.18
2022-11-19T16:07:47.372Z,21.04
2022-11-19T16:13:16.602Z,21.11
2022-11-19T16:18:20.718Z,21.06
2022-11-19T16:23:25.519Z,20.76
2022-11-19T16:28:31.029Z,20.64
2022-11-19T16:33:35.010Z,20.81
2022-11-19T16:38:38.884Z,20.78
2022-11-19T16:43:48.938Z,20.54
2022-11-19T16:48:56.163Z,20.52
2022-11-19T16:53:58.804Z,20.59
2022-11-19T16:59:04.322Z,20.16
2022-11-19T17:04:08.589Z,20.29
2022-11-19T17:09:30.854Z,20.44
2022-11-19T17:14:36.102Z,20.35
2022-11-19T17:19:38.382Z,20.27
2022-11-19T17:24:45.352Z,20.18
2022-11-19T17:29:47.652Z,20.09
2022-11-19T17:34:55.550Z,20.26
2022-11-19T17:39:57.813Z,20.36
2022-11-19T17:45:04.757Z,20.09
2022-11-19T17:50:10.015Z,20.15
2022-11-19T17:55:18.507Z,19.87
2022-11-19T18:00:20.971Z,20.11
2022-11-19T18:05:34.706Z,20.18
2022-11-19T18:10:37.273Z,20.10
2022-11-19T18:15:39.742Z,20.31
2022-11-19T18:20:42.557Z,20.32
2022-11-19T18:25:45.294Z,20.28
2022-11-19T18:30:47.897Z,20.27
2022-11-19T18:35:50.197Z,20.08
2022-11-19T18:40:52.655Z,20.16
2022-11-19T18:45:55.038Z,19.85
2022-11-19T18:50:57.538Z,19.97
2022-11-19T18:55:59.890Z,19.95
2022-11-19T19:01:07.605Z,20.08
2022-11-19T19:06:10.235Z,20.07
2022-11-19T19:11:31.509Z,19.81
2022-11-19T19:16:35.176Z,19.76
2022-11-19T19:21:37.469Z,19.30
2022-11-19T19:26:39.819Z,19.56
2022-11-19T19:31:42.205Z,19.70
2022-11-19T19:36:48.974Z,19.61
2022-11-19T19:41:55.420Z,19.47
2022-11-19T19:46:57.864Z,19.45
2022-11-19T19:52:00.113Z,19.41
2022-11-19T19:57:02.532Z,19.65
2022-11-19T20:02:04.944Z,19.38
2022-11-19T20:07:07.570Z,19.37
2022-11-19T20:12:10.150Z,19.29
2022-11-19T20:17:12.504Z,19.55
2022-11-19T20:22:14.741Z,19.36
2022-11-19T20:27:17.039Z,19.41
2022-11-19T20:32:19.320Z,19.45
2022-11-19T20:37:21.708Z,19.32
2022-11-19T20:42:42.242Z,19.37
2022-11-19T20:47:44.519Z,19.42
2022-11-19T20:52:46.923Z,19.42
2022-11-19T20:57:49.521Z,19.27
2022-11-19T21:02:51.785Z,19.43
2022-11-19T21:07:54.164Z,18.95
2022-11-19T21:13:02.439Z,18.97
2022-11-19T21:18:05.008Z,18.91
2022-11-19T21:23:07.293Z,19.12
2022-11-19T21:28:10.005Z,19.31
2022-11-19T21:33:12.286Z,19.23
2022-11-19T21:38:14.830Z,19.18
2022-11-19T21:43:17.283Z,19.01
2022-11-19T21:48:20.058Z,18.92
2022-11-19T21:53:22.406Z,18.88
2022-11-19T21:58:24.653Z,19.24
2022-11-19T22:03:32.826Z,19.12
2022-11-19T22:08:38.801Z,19.13
2022-11-19T22:13:41.162Z,18.94
2022-11-19T22:18:43.719Z,18.72
2022-11-19T22:23:46.299Z,19.07
2022-11-19T22:28:48.751Z,19.10
2022-11-19T22:33:52.380Z,19.14
2022-11-19T22:38:54.786Z,18.99
2022-11-19T22:43:58.900Z,19.01
2022-11-19T22:49:01.428Z,18.79
2022-11-19T22:54:03.986Z,18.63
2022-11-19T22:59:06.197Z,18.77
2022-11-19T23:04:08.695Z,18.73
2022-11-19T23:09:11.154Z,18.74
2022-11-19T23:14:15.384Z,18.95
2022-11-19T23:19:20.023Z,18.61
2022-11-19T23:24:22.598Z,18.63
2022-11-19T23:29:24.922Z,18.48
2022-11-19T23:34:27.338Z,18.33
2022-11-19T23:39:29.565Z,18.37
2022-11-19T23:44:31.785Z,18.60
2022-11-19T23:49:34.003Z,18.21
2022-11-19T23:54:36.275Z,18.11
2022-11-19T23:59:38.566Z,18.29
